sensor_id;sensor_type;location;lat;lon;timestamp;P1;durP1;ratioP1;P2;durP2;ratioP2
37051;SDS011;22964;52.272;13.356;2023-07-20T00:00:28;2.30;;;1.55;;
37051;SDS011;22964;52.272;13.356;2023-07-20T00:03:05;2.53;;;1.60;;
37051;SDS011;22964;52.272;13.356;2023-07-20T00:05:36;2.40;;;1.45;;
37051;SDS011;22964;52.272;13.356;2023-07-20T00:08:01;2.83;;;1.55;;
37051;SDS011;22964;52.272;13.356;2023-07-20T00:10:27;2.72;;;1.70;;
37051;SDS011;22964;52.272;13.356;2023-07-20T00:12:53;1.85;;;1.45;;
37051;SDS011;22964;52.272;13.356;2023-07-20T00:15:18;2.63;;;1.80;;
37051;SDS011;22964;52.272;13.356;2023-07-20T00:17:44;2.10;;;1.60;;
37051;SDS011;22964;52.272;13.356;2023-07-20T00:20:10;4.65;;;1.55;;
37051;SDS011;22964;52.272;13.356;2023-07-20T00:22:36;3.38;;;1.60;;
37051;SDS011;22964;52.272;13.356;2023-07-20T00:25:02;3.80;;;1.70;;
37051;SDS011;22964;52.272;13.356;2023-07-20T00:27:28;2.53;;;1.67;;
37051;SDS011;22964;52.272;13.356;2023-07-20T00:29:54;3.25;;;1.80;;
37051;SDS011;22964;52.272;13.356;2023-07-20T00:32:19;2.40;;;1.58;;
37051;SDS011;22964;52.272;13.356;2023-07-20T00:34:45;2.53;;;1.65;;
37051;SDS011;22964;52.272;13.356;2023-07-20T00:37:11;3.50;;;1.90;;
37051;SDS011;22964;52.272;13.356;2023-07-20T00:39:37;4.28;;;1.75;;
37051;SDS011;22964;52.272;13.356;2023-07-20T00:42:03;4.20;;;2.00;;
37051;SDS011;22964;52.272;13.356;2023-07-20T00:44:29;3.45;;;1.90;;
37051;SDS011;22964;52.272;13.356;2023-07-20T00:46:55;3.80;;;1.90;;
37051;SDS011;22964;52.272;13.356;2023-07-20T00:49:21;5.13;;;2.22;;
37051;SDS011;22964;52.272;13.356;2023-07-20T00:51:48;2.78;;;1.73;;
37051;SDS011;22964;52.272;13.356;2023-07-20T00:54:15;5.60;;;2.00;;
37051;SDS011;22964;52.272;13.356;2023-07-20T00:56:42;3.05;;;1.85;;
37051;SDS011;22964;52.272;13.356;2023-07-20T00:59:08;6.85;;;1.90;;
37051;SDS011;22964;52.272;13.356;2023-07-20T01:01:34;2.60;;;1.90;;
37051;SDS011;22964;52.272;13.356;2023-07-20T01:04:00;7.07;;;2.33;;
37051;SDS011;22964;52.272;13.356;2023-07-20T01:14:13;4.57;;;1.92;;
37051;SDS011;22964;52.272;13.356;2023-07-20T01:16:40;7.00;;;2.03;;
37051;SDS011;22964;52.272;13.356;2023-07-20T01:19:06;4.85;;;2.17;;
37051;SDS011;22964;52.272;13.356;2023-07-20T01:22:38;5.47;;;2.00;;
37051;SDS011;22964;52.272;13.356;2023-07-20T01:33:00;3.83;;;1.98;;
37051;SDS011;22964;52.272;13.356;2023-07-20T01:35:27;6.63;;;1.92;;
37051;SDS011;22964;52.272;13.356;2023-07-20T01:37:55;4.13;;;2.00;;
37051;SDS011;22964;52.272;13.356;2023-07-20T01:40:23;4.10;;;2.05;;
37051;SDS011;22964;52.272;13.356;2023-07-20T01:42:51;5.60;;;2.10;;
37051;SDS011;22964;52.272;13.356;2023-07-20T01:45:18;6.72;;;2.30;;
37051;SDS011;22964;52.272;13.356;2023-07-20T01:47:43;5.25;;;1.95;;
37051;SDS011;22964;52.272;13.356;2023-07-20T01:50:09;5.78;;;2.17;;
37051;SDS011;22964;52.272;13.356;2023-07-20T01:52:35;7.68;;;2.38;;
37051;SDS011;22964;52.272;13.356;2023-07-20T01:55:02;4.97;;;2.40;;
37051;SDS011;22964;52.272;13.356;2023-07-20T01:57:30;3.17;;;1.98;;
37051;SDS011;22964;52.272;13.356;2023-07-20T01:59:56;2.83;;;1.83;;
37051;SDS011;22964;52.272;13.356;2023-07-20T02:02:23;3.45;;;2.10;;
37051;SDS011;22964;52.272;13.356;2023-07-20T02:04:51;5.40;;;2.17;;
37051;SDS011;22964;52.272;13.356;2023-07-20T02:07:17;4.57;;;2.00;;
37051;SDS011;22964;52.272;13.356;2023-07-20T02:09:43;4.65;;;2.15;;
37051;SDS011;22964;52.272;13.356;2023-07-20T02:12:08;4.30;;;2.03;;
37051;SDS011;22964;52.272;13.356;2023-07-20T02:14:34;2.47;;;1.90;;
37051;SDS011;22964;52.272;13.356;2023-07-20T02:17:00;2.95;;;2.00;;
37051;SDS011;22964;52.272;13.356;2023-07-20T02:19:28;3.75;;;2.00;;
37051;SDS011;22964;52.272;13.356;2023-07-20T02:21:55;3.13;;;2.10;;
37051;SDS011;22964;52.272;13.356;2023-07-20T02:24:20;4.65;;;2.15;;
37051;SDS011;22964;52.272;13.356;2023-07-20T02:26:46;5.15;;;2.15;;
37051;SDS011;22964;52.272;13.356;2023-07-20T02:29:12;4.97;;;2.25;;
37051;SDS011;22964;52.272;13.356;2023-07-20T02:31:38;4.97;;;2.10;;
37051;SDS011;22964;52.272;13.356;2023-07-20T02:34:07;3.05;;;2.25;;
37051;SDS011;22964;52.272;13.356;2023-07-20T02:36:34;6.65;;;2.22;;
37051;SDS011;22964;52.272;13.356;2023-07-20T02:39:00;5.90;;;2.30;;
37051;SDS011;22964;52.272;13.356;2023-07-20T02:41:29;2.92;;;2.03;;
37051;SDS011;22964;52.272;13.356;2023-07-20T02:43:58;3.70;;;2.10;;
37051;SDS011;22964;52.272;13.356;2023-07-20T02:46:24;3.13;;;2.13;;
37051;SDS011;22964;52.272;13.356;2023-07-20T02:48:49;3.20;;;2.30;;
37051;SDS011;22964;52.272;13.356;2023-07-20T02:51:15;2.75;;;2.20;;
37051;SDS011;22964;52.272;13.356;2023-07-20T02:53:41;3.90;;;2.22;;
37051;SDS011;22964;52.272;13.356;2023-07-20T02:56:07;3.00;;;2.08;;
37051;SDS011;22964;52.272;13.356;2023-07-20T02:58:34;6.75;;;2.10;;
37051;SDS011;22964;52.272;13.356;2023-07-20T03:01:03;3.45;;;2.20;;
37051;SDS011;22964;52.272;13.356;2023-07-20T03:03:29;5.28;;;2.33;;
37051;SDS011;22964;52.272;13.356;2023-07-20T03:05:55;4.70;;;2.35;;
37051;SDS011;22964;52.272;13.356;2023-07-20T03:08:22;3.47;;;2.40;;
37051;SDS011;22964;52.272;13.356;2023-07-20T03:10:49;3.00;;;2.30;;
37051;SDS011;22964;52.272;13.356;2023-07-20T03:13:14;3.65;;;2.38;;
37051;SDS011;22964;52.272;13.356;2023-07-20T03:15:41;6.97;;;2.85;;
37051;SDS011;22964;52.272;13.356;2023-07-20T03:18:08;3.47;;;2.42;;
37051;SDS011;22964;52.272;13.356;2023-07-20T03:20:34;2.90;;;2.25;;
37051;SDS011;22964;52.272;13.356;2023-07-20T03:23:01;4.15;;;2.38;;
37051;SDS011;22964;52.272;13.356;2023-07-20T03:25:26;4.30;;;2.60;;
37051;SDS011;22964;52.272;13.356;2023-07-20T03:27:52;5.82;;;2.50;;
37051;SDS011;22964;52.272;13.356;2023-07-20T03:30:18;4.05;;;2.53;;
37051;SDS011;22964;52.272;13.356;2023-07-20T03:32:44;4.03;;;2.50;;
37051;SDS011;22964;52.272;13.356;2023-07-20T03:35:09;7.05;;;2.70;;
37051;SDS011;22964;52.272;13.356;2023-07-20T03:37:35;5.07;;;2.47;;
37051;SDS011;22964;52.272;13.356;2023-07-20T03:40:02;6.03;;;2.85;;
37051;SDS011;22964;52.272;13.356;2023-07-20T03:42:29;3.75;;;2.75;;
37051;SDS011;22964;52.272;13.356;2023-07-20T03:44:54;5.82;;;2.67;;
37051;SDS011;22964;52.272;13.356;2023-07-20T03:47:21;4.53;;;2.83;;
37051;SDS011;22964;52.272;13.356;2023-07-20T03:49:47;5.03;;;2.75;;
37051;SDS011;22964;52.272;13.356;2023-07-20T03:52:13;4.10;;;3.10;;
37051;SDS011;22964;52.272;13.356;2023-07-20T03:54:38;4.97;;;3.42;;
37051;SDS011;22964;52.272;13.356;2023-07-20T03:57:04;4.07;;;3.10;;
37051;SDS011;22964;52.272;13.356;2023-07-20T03:59:30;4.07;;;3.15;;
37051;SDS011;22964;52.272;13.356;2023-07-20T04:01:56;4.75;;;3.38;;
37051;SDS011;22964;52.272;13.356;2023-07-20T04:04:21;5.60;;;3.28;;
37051;SDS011;22964;52.272;13.356;2023-07-20T04:06:47;5.13;;;3.50;;
37051;SDS011;22964;52.272;13.356;2023-07-20T04:09:13;6.40;;;3.47;;
37051;SDS011;22964;52.272;13.356;2023-07-20T04:11:39;5.30;;;3.42;;
37051;SDS011;22964;52.272;13.356;2023-07-20T04:14:05;5.43;;;3.20;;
37051;SDS011;22964;52.272;13.356;2023-07-20T04:16:31;5.22;;;3.38;;
37051;SDS011;22964;52.272;13.356;2023-07-20T04:18:57;5.65;;;3.40;;
37051;SDS011;22964;52.272;13.356;2023-07-20T04:21:25;4.88;;;3.70;;
37051;SDS011;22964;52.272;13.356;2023-07-20T04:23:52;5.63;;;3.75;;
37051;SDS011;22964;52.272;13.356;2023-07-20T04:26:18;5.28;;;3.78;;
37051;SDS011;22964;52.272;13.356;2023-07-20T04:28:43;5.32;;;3.90;;
37051;SDS011;22964;52.272;13.356;2023-07-20T04:31:15;7.37;;;4.03;;
37051;SDS011;22964;52.272;13.356;2023-07-20T04:33:44;5.72;;;3.95;;
37051;SDS011;22964;52.272;13.356;2023-07-20T04:36:09;5.03;;;4.07;;
37051;SDS011;22964;52.272;13.356;2023-07-20T04:38:35;5.32;;;3.88;;
37051;SDS011;22964;52.272;13.356;2023-07-20T04:41:21;6.32;;;3.85;;
37051;SDS011;22964;52.272;13.356;2023-07-20T04:43:49;5.78;;;3.97;;
37051;SDS011;22964;52.272;13.356;2023-07-20T04:46:22;8.63;;;4.07;;
37051;SDS011;22964;52.272;13.356;2023-07-20T04:48:49;5.93;;;3.97;;
37051;SDS011;22964;52.272;13.356;2023-07-20T04:51:15;8.25;;;4.35;;
37051;SDS011;22964;52.272;13.356;2023-07-20T04:53:45;4.82;;;4.00;;
37051;SDS011;22964;52.272;13.356;2023-07-20T04:56:12;6.47;;;4.10;;
37051;SDS011;22964;52.272;13.356;2023-07-20T04:58:37;7.35;;;4.13;;
37051;SDS011;22964;52.272;13.356;2023-07-20T05:01:03;6.50;;;4.35;;
37051;SDS011;22964;52.272;13.356;2023-07-20T05:03:30;4.82;;;3.70;;
37051;SDS011;22964;52.272;13.356;2023-07-20T05:05:56;5.00;;;4.10;;
37051;SDS011;22964;52.272;13.356;2023-07-20T05:08:22;6.22;;;4.13;;
37051;SDS011;22964;52.272;13.356;2023-07-20T05:10:48;5.43;;;3.95;;
37051;SDS011;22964;52.272;13.356;2023-07-20T05:13:15;6.55;;;4.35;;
37051;SDS011;22964;52.272;13.356;2023-07-20T05:15:41;6.28;;;4.13;;
37051;SDS011;22964;52.272;13.356;2023-07-20T05:18:11;5.85;;;4.28;;
37051;SDS011;22964;52.272;13.356;2023-07-20T05:20:37;6.68;;;4.10;;
37051;SDS011;22964;52.272;13.356;2023-07-20T05:23:03;7.53;;;4.30;;
37051;SDS011;22964;52.272;13.356;2023-07-20T05:25:29;7.57;;;4.10;;
37051;SDS011;22964;52.272;13.356;2023-07-20T05:27:54;5.50;;;4.15;;
37051;SDS011;22964;52.272;13.356;2023-07-20T05:30:20;6.07;;;3.78;;
37051;SDS011;22964;52.272;13.356;2023-07-20T05:32:46;6.35;;;4.03;;
37051;SDS011;22964;52.272;13.356;2023-07-20T05:35:16;6.88;;;4.45;;
37051;SDS011;22964;52.272;13.356;2023-07-20T05:37:43;6.13;;;4.28;;
37051;SDS011;22964;52.272;13.356;2023-07-20T05:40:10;4.60;;;3.92;;
37051;SDS011;22964;52.272;13.356;2023-07-20T05:42:37;5.15;;;4.13;;
37051;SDS011;22964;52.272;13.356;2023-07-20T05:45:04;5.68;;;4.13;;
37051;SDS011;22964;52.272;13.356;2023-07-20T05:47:30;5.50;;;3.90;;
37051;SDS011;22964;52.272;13.356;2023-07-20T05:49:56;4.57;;;3.80;;
37051;SDS011;22964;52.272;13.356;2023-07-20T05:52:21;5.95;;;4.10;;
37051;SDS011;22964;52.272;13.356;2023-07-20T05:54:47;6.25;;;3.88;;
37051;SDS011;22964;52.272;13.356;2023-07-20T05:57:13;7.07;;;4.38;;
37051;SDS011;22964;52.272;13.356;2023-07-20T05:59:38;5.40;;;3.65;;
37051;SDS011;22964;52.272;13.356;2023-07-20T06:02:06;5.15;;;3.50;;
37051;SDS011;22964;52.272;13.356;2023-07-20T06:04:33;3.97;;;3.40;;
37051;SDS011;22964;52.272;13.356;2023-07-20T06:06:58;5.38;;;3.70;;
37051;SDS011;22964;52.272;13.356;2023-07-20T06:09:24;4.65;;;3.38;;
37051;SDS011;22964;52.272;13.356;2023-07-20T06:11:50;6.05;;;3.45;;
37051;SDS011;22964;52.272;13.356;2023-07-20T06:14:15;5.95;;;3.60;;
37051;SDS011;22964;52.272;13.356;2023-07-20T06:16:41;6.00;;;3.20;;
37051;SDS011;22964;52.272;13.356;2023-07-20T06:19:07;5.57;;;2.92;;
37051;SDS011;22964;52.272;13.356;2023-07-20T06:21:33;5.55;;;3.55;;
37051;SDS011;22964;52.272;13.356;2023-07-20T06:23:58;4.75;;;3.08;;
37051;SDS011;22964;52.272;13.356;2023-07-20T06:26:24;3.80;;;3.33;;
37051;SDS011;22964;52.272;13.356;2023-07-20T06:28:50;4.35;;;2.90;;
37051;SDS011;22964;52.272;13.356;2023-07-20T06:31:16;5.65;;;3.00;;
37051;SDS011;22964;52.272;13.356;2023-07-20T06:33:42;4.95;;;3.28;;
37051;SDS011;22964;52.272;13.356;2023-07-20T06:36:07;3.97;;;2.90;;
37051;SDS011;22964;52.272;13.356;2023-07-20T06:38:33;4.65;;;2.92;;
37051;SDS011;22964;52.272;13.356;2023-07-20T06:40:59;3.67;;;3.00;;
37051;SDS011;22964;52.272;13.356;2023-07-20T06:43:24;3.97;;;3.00;;
37051;SDS011;22964;52.272;13.356;2023-07-20T06:45:53;4.18;;;3.40;;
37051;SDS011;22964;52.272;13.356;2023-07-20T06:48:19;7.20;;;3.38;;
37051;SDS011;22964;52.272;13.356;2023-07-20T06:50:45;4.82;;;3.17;;
37051;SDS011;22964;52.272;13.356;2023-07-20T06:53:11;3.70;;;3.03;;
37051;SDS011;22964;52.272;13.356;2023-07-20T06:55:37;4.45;;;3.10;;
37051;SDS011;22964;52.272;13.356;2023-07-20T06:58:03;4.85;;;3.17;;
37051;SDS011;22964;52.272;13.356;2023-07-20T07:00:29;4.18;;;2.78;;
37051;SDS011;22964;52.272;13.356;2023-07-20T07:02:55;4.07;;;2.58;;
37051;SDS011;22964;52.272;13.356;2023-07-20T07:05:20;4.65;;;2.45;;
37051;SDS011;22964;52.272;13.356;2023-07-20T07:07:46;3.97;;;2.35;;
37051;SDS011;22964;52.272;13.356;2023-07-20T07:10:12;3.13;;;2.10;;
37051;SDS011;22964;52.272;13.356;2023-07-20T07:12:38;2.75;;;2.20;;
37051;SDS011;22964;52.272;13.356;2023-07-20T07:15:04;2.45;;;1.83;;
37051;SDS011;22964;52.272;13.356;2023-07-20T07:17:33;2.88;;;1.88;;
37051;SDS011;22964;52.272;13.356;2023-07-20T07:20:00;3.00;;;1.85;;
37051;SDS011;22964;52.272;13.356;2023-07-20T07:22:26;2.92;;;2.15;;
37051;SDS011;22964;52.272;13.356;2023-07-20T07:24:51;3.22;;;1.90;;
37051;SDS011;22964;52.272;13.356;2023-07-20T07:27:17;4.15;;;2.05;;
37051;SDS011;22964;52.272;13.356;2023-07-20T07:29:43;5.38;;;2.00;;
37051;SDS011;22964;52.272;13.356;2023-07-20T07:32:10;2.78;;;1.63;;
37051;SDS011;22964;52.272;13.356;2023-07-20T07:34:36;2.40;;;1.42;;
37051;SDS011;22964;52.272;13.356;2023-07-20T07:37:02;2.75;;;1.70;;
37051;SDS011;22964;52.272;13.356;2023-07-20T07:39:29;1.65;;;1.38;;
37051;SDS011;22964;52.272;13.356;2023-07-20T07:41:55;2.00;;;1.30;;
37051;SDS011;22964;52.272;13.356;2023-07-20T07:44:21;3.50;;;1.42;;
37051;SDS011;22964;52.272;13.356;2023-07-20T07:46:47;2.10;;;1.38;;
37051;SDS011;22964;52.272;13.356;2023-07-20T07:49:14;4.80;;;1.25;;
37051;SDS011;22964;52.272;13.356;2023-07-20T07:51:41;2.85;;;1.10;;
37051;SDS011;22964;52.272;13.356;2023-07-20T07:54:06;2.33;;;1.15;;
37051;SDS011;22964;52.272;13.356;2023-07-20T07:56:32;0.90;;;0.80;;
37051;SDS011;22964;52.272;13.356;2023-07-20T07:58:58;1.13;;;0.70;;
37051;SDS011;22964;52.272;13.356;2023-07-20T08:01:23;1.15;;;0.75;;
37051;SDS011;22964;52.272;13.356;2023-07-20T08:03:49;1.33;;;0.90;;
37051;SDS011;22964;52.272;13.356;2023-07-20T08:06:16;1.30;;;0.90;;
37051;SDS011;22964;52.272;13.356;2023-07-20T08:08:42;0.80;;;0.73;;
37051;SDS011;22964;52.272;13.356;2023-07-20T08:11:07;1.20;;;0.73;;
37051;SDS011;22964;52.272;13.356;2023-07-20T08:13:34;1.58;;;0.80;;
37051;SDS011;22964;52.272;13.356;2023-07-20T08:16:00;2.05;;;0.77;;
37051;SDS011;22964;52.272;13.356;2023-07-20T08:18:27;0.82;;;0.70;;
37051;SDS011;22964;52.272;13.356;2023-07-20T08:20:53;1.25;;;0.68;;
37051;SDS011;22964;52.272;13.356;2023-07-20T08:23:19;1.13;;;0.60;;
37051;SDS011;22964;52.272;13.356;2023-07-20T08:25:45;0.98;;;0.70;;
37051;SDS011;22964;52.272;13.356;2023-07-20T08:28:11;1.23;;;0.60;;
37051;SDS011;22964;52.272;13.356;2023-07-20T08:30:42;0.63;;;0.63;;
37051;SDS011;22964;52.272;13.356;2023-07-20T08:33:10;1.02;;;0.60;;
37051;SDS011;22964;52.272;13.356;2023-07-20T08:35:36;1.65;;;0.80;;
37051;SDS011;22964;52.272;13.356;2023-07-20T08:38:02;0.82;;;0.60;;
37051;SDS011;22964;52.272;13.356;2023-07-20T08:40:30;0.70;;;0.60;;
37051;SDS011;22964;52.272;13.356;2023-07-20T08:42:57;2.10;;;0.80;;
37051;SDS011;22964;52.272;13.356;2023-07-20T08:45:25;2.85;;;0.70;;
37051;SDS011;22964;52.272;13.356;2023-07-20T08:47:54;0.63;;;0.60;;
37051;SDS011;22964;52.272;13.356;2023-07-20T08:50:22;1.60;;;0.80;;
37051;SDS011;22964;52.272;13.356;2023-07-20T08:52:48;0.75;;;0.60;;
37051;SDS011;22964;52.272;13.356;2023-07-20T08:55:15;0.93;;;0.65;;
37051;SDS011;22964;52.272;13.356;2023-07-20T08:57:41;1.55;;;0.70;;
37051;SDS011;22964;52.272;13.356;2023-07-20T09:00:11;0.98;;;0.70;;
37051;SDS011;22964;52.272;13.356;2023-07-20T09:02:39;1.15;;;0.73;;
37051;SDS011;22964;52.272;13.356;2023-07-20T09:05:07;1.15;;;0.60;;
37051;SDS011;22964;52.272;13.356;2023-07-20T09:07:38;1.00;;;0.70;;
37051;SDS011;22964;52.272;13.356;2023-07-20T09:10:05;0.95;;;0.73;;
37051;SDS011;22964;52.272;13.356;2023-07-20T09:12:34;1.15;;;0.70;;
37051;SDS011;22964;52.272;13.356;2023-07-20T09:15:00;1.13;;;0.70;;
37051;SDS011;22964;52.272;13.356;2023-07-20T09:17:26;0.82;;;0.82;;
37051;SDS011;22964;52.272;13.356;2023-07-20T09:19:52;1.58;;;0.80;;
37051;SDS011;22964;52.272;13.356;2023-07-20T09:22:17;1.40;;;0.85;;
37051;SDS011;22964;52.272;13.356;2023-07-20T09:24:43;1.23;;;0.82;;
37051;SDS011;22964;52.272;13.356;2023-07-20T09:27:09;1.30;;;1.00;;
37051;SDS011;22964;52.272;13.356;2023-07-20T09:29:48;0.90;;;0.80;;
37051;SDS011;22964;52.272;13.356;2023-07-20T09:32:19;1.40;;;0.80;;
37051;SDS011;22964;52.272;13.356;2023-07-20T09:34:45;1.20;;;0.63;;
37051;SDS011;22964;52.272;13.356;2023-07-20T09:37:12;0.90;;;0.75;;
37051;SDS011;22964;52.272;13.356;2023-07-20T09:39:44;0.75;;;0.68;;
37051;SDS011;22964;52.272;13.356;2023-07-20T09:42:11;3.35;;;0.60;;
37051;SDS011;22964;52.272;13.356;2023-07-20T09:44:38;2.10;;;0.93;;
37051;SDS011;22964;52.272;13.356;2023-07-20T09:47:04;1.02;;;0.70;;
37051;SDS011;22964;52.272;13.356;2023-07-20T09:49:31;0.80;;;0.60;;
37051;SDS011;22964;52.272;13.356;2023-07-20T09:51:57;1.05;;;0.70;;
37051;SDS011;22964;52.272;13.356;2023-07-20T09:54:26;0.70;;;0.70;;
37051;SDS011;22964;52.272;13.356;2023-07-20T09:56:52;2.88;;;0.70;;
37051;SDS011;22964;52.272;13.356;2023-07-20T09:59:19;0.80;;;0.60;;
37051;SDS011;22964;52.272;13.356;2023-07-20T10:01:44;1.42;;;0.90;;
37051;SDS011;22964;52.272;13.356;2023-07-20T10:04:11;4.25;;;1.15;;
37051;SDS011;22964;52.272;13.356;2023-07-20T10:06:39;0.68;;;0.60;;
37051;SDS011;22964;52.272;13.356;2023-07-20T10:09:07;0.88;;;0.60;;
37051;SDS011;22964;52.272;13.356;2023-07-20T10:11:36;0.82;;;0.70;;
37051;SDS011;22964;52.272;13.356;2023-07-20T10:14:05;0.90;;;0.73;;
37051;SDS011;22964;52.272;13.356;2023-07-20T10:16:37;0.70;;;0.65;;
37051;SDS011;22964;52.272;13.356;2023-07-20T10:19:27;1.45;;;0.80;;
37051;SDS011;22964;52.272;13.356;2023-07-20T10:22:14;0.63;;;0.60;;
37051;SDS011;22964;52.272;13.356;2023-07-20T10:24:48;0.60;;;0.57;;
37051;SDS011;22964;52.272;13.356;2023-07-20T10:27:15;1.35;;;0.57;;
37051;SDS011;22964;52.272;13.356;2023-07-20T10:29:41;1.63;;;0.63;;
37051;SDS011;22964;52.272;13.356;2023-07-20T10:32:07;2.13;;;0.65;;
37051;SDS011;22964;52.272;13.356;2023-07-20T10:34:34;0.95;;;0.60;;
37051;SDS011;22964;52.272;13.356;2023-07-20T10:37:00;1.48;;;0.90;;
37051;SDS011;22964;52.272;13.356;2023-07-20T10:39:26;0.65;;;0.60;;
37051;SDS011;22964;52.272;13.356;2023-07-20T10:41:59;0.55;;;0.50;;
37051;SDS011;22964;52.272;13.356;2023-07-20T10:44:26;0.70;;;0.50;;
37051;SDS011;22964;52.272;13.356;2023-07-20T10:46:51;0.70;;;0.60;;
37051;SDS011;22964;52.272;13.356;2023-07-20T10:49:25;0.75;;;0.60;;
37051;SDS011;22964;52.272;13.356;2023-07-20T10:51:59;1.00;;;0.45;;
37051;SDS011;22964;52.272;13.356;2023-07-20T10:56:55;0.50;;;0.50;;
37051;SDS011;22964;52.272;13.356;2023-07-20T11:01:48;1.88;;;0.65;;
37051;SDS011;22964;52.272;13.356;2023-07-20T11:04:15;1.00;;;0.40;;
37051;SDS011;22964;52.272;13.356;2023-07-20T11:06:43;0.60;;;0.55;;
37051;SDS011;22964;52.272;13.356;2023-07-20T11:09:10;1.00;;;0.60;;
37051;SDS011;22964;52.272;13.356;2023-07-20T11:11:44;0.90;;;0.60;;
37051;SDS011;22964;52.272;13.356;2023-07-20T11:14:21;1.02;;;0.60;;
37051;SDS011;22964;52.272;13.356;2023-07-20T11:16:49;1.40;;;0.60;;
37051;SDS011;22964;52.272;13.356;2023-07-20T11:21:51;1.95;;;0.52;;
37051;SDS011;22964;52.272;13.356;2023-07-20T11:24:30;0.63;;;0.50;;
37051;SDS011;22964;52.272;13.356;2023-07-20T11:26:56;0.50;;;0.47;;
37051;SDS011;22964;52.272;13.356;2023-07-20T11:29:22;0.70;;;0.50;;
37051;SDS011;22964;52.272;13.356;2023-07-20T11:31:50;0.73;;;0.50;;
37051;SDS011;22964;52.272;13.356;2023-07-20T11:34:17;0.65;;;0.55;;
37051;SDS011;22964;52.272;13.356;2023-07-20T11:36:45;1.17;;;0.65;;
37051;SDS011;22964;52.272;13.356;2023-07-20T11:39:14;0.50;;;0.50;;
37051;SDS011;22964;52.272;13.356;2023-07-20T11:41:57;1.02;;;0.60;;
37051;SDS011;22964;52.272;13.356;2023-07-20T11:44:24;1.13;;;0.50;;
37051;SDS011;22964;52.272;13.356;2023-07-20T11:49:29;1.13;;;0.40;;
37051;SDS011;22964;52.272;13.356;2023-07-20T11:51:56;0.73;;;0.60;;
37051;SDS011;22964;52.272;13.356;2023-07-20T11:54:23;0.68;;;0.60;;
37051;SDS011;22964;52.272;13.356;2023-07-20T11:56:53;0.63;;;0.52;;
37051;SDS011;22964;52.272;13.356;2023-07-20T11:59:20;1.33;;;0.50;;
37051;SDS011;22964;52.272;13.356;2023-07-20T12:01:45;1.92;;;0.70;;
37051;SDS011;22964;52.272;13.356;2023-07-20T12:04:12;0.63;;;0.52;;
37051;SDS011;22964;52.272;13.356;2023-07-20T12:06:37;1.42;;;0.60;;
37051;SDS011;22964;52.272;13.356;2023-07-20T12:09:03;1.98;;;0.50;;
37051;SDS011;22964;52.272;13.356;2023-07-20T12:11:36;0.70;;;0.50;;
37051;SDS011;22964;52.272;13.356;2023-07-20T12:14:08;1.02;;;0.60;;
37051;SDS011;22964;52.272;13.356;2023-07-20T12:16:36;0.80;;;0.57;;
37051;SDS011;22964;52.272;13.356;2023-07-20T12:19:06;1.23;;;0.60;;
37051;SDS011;22964;52.272;13.356;2023-07-20T12:21:34;0.68;;;0.50;;
37051;SDS011;22964;52.272;13.356;2023-07-20T12:24:02;0.82;;;0.60;;
37051;SDS011;22964;52.272;13.356;2023-07-20T12:26:32;0.88;;;0.57;;
37051;SDS011;22964;52.272;13.356;2023-07-20T12:28:58;0.80;;;0.60;;
37051;SDS011;22964;52.272;13.356;2023-07-20T12:31:25;0.90;;;0.60;;
37051;SDS011;22964;52.272;13.356;2023-07-20T12:33:52;3.13;;;0.70;;
37051;SDS011;22964;52.272;13.356;2023-07-20T12:36:20;0.55;;;0.47;;
37051;SDS011;22964;52.272;13.356;2023-07-20T12:38:46;1.35;;;0.65;;
37051;SDS011;22964;52.272;13.356;2023-07-20T12:41:12;0.63;;;0.50;;
37051;SDS011;22964;52.272;13.356;2023-07-20T12:43:42;1.85;;;0.60;;
37051;SDS011;22964;52.272;13.356;2023-07-20T12:46:11;1.00;;;0.60;;
37051;SDS011;22964;52.272;13.356;2023-07-20T12:48:38;0.77;;;0.60;;
37051;SDS011;22964;52.272;13.356;2023-07-20T12:51:07;0.77;;;0.52;;
37051;SDS011;22964;52.272;13.356;2023-07-20T12:53:34;0.50;;;0.50;;
37051;SDS011;22964;52.272;13.356;2023-07-20T12:56:00;3.00;;;0.60;;
37051;SDS011;22964;52.272;13.356;2023-07-20T12:58:26;0.60;;;0.50;;
37051;SDS011;22964;52.272;13.356;2023-07-20T13:00:52;0.47;;;0.45;;
37051;SDS011;22964;52.272;13.356;2023-07-20T13:03:19;0.60;;;0.47;;
37051;SDS011;22964;52.272;13.356;2023-07-20T13:05:47;0.82;;;0.45;;
37051;SDS011;22964;52.272;13.356;2023-07-20T13:08:14;0.40;;;0.40;;
37051;SDS011;22964;52.272;13.356;2023-07-20T13:10:40;0.75;;;0.50;;
37051;SDS011;22964;52.272;13.356;2023-07-20T13:13:06;0.75;;;0.57;;
37051;SDS011;22964;52.272;13.356;2023-07-20T13:15:33;0.40;;;0.40;;
37051;SDS011;22964;52.272;13.356;2023-07-20T13:18:06;0.88;;;0.60;;
37051;SDS011;22964;52.272;13.356;2023-07-20T13:20:32;0.40;;;0.40;;
37051;SDS011;22964;52.272;13.356;2023-07-20T13:22:58;0.95;;;0.40;;
37051;SDS011;22964;52.272;13.356;2023-07-20T13:25:24;0.43;;;0.43;;
37051;SDS011;22964;52.272;13.356;2023-07-20T13:27:50;0.40;;;0.40;;
37051;SDS011;22964;52.272;13.356;2023-07-20T13:30:15;0.40;;;0.30;;
37051;SDS011;22964;52.272;13.356;2023-07-20T13:32:44;0.65;;;0.45;;
37051;SDS011;22964;52.272;13.356;2023-07-20T13:35:11;0.52;;;0.30;;
37051;SDS011;22964;52.272;13.356;2023-07-20T13:37:37;0.77;;;0.50;;
37051;SDS011;22964;52.272;13.356;2023-07-20T13:40:03;0.38;;;0.38;;
37051;SDS011;22964;52.272;13.356;2023-07-20T13:42:30;0.35;;;0.30;;
37051;SDS011;22964;52.272;13.356;2023-07-20T13:44:57;0.52;;;0.50;;
37051;SDS011;22964;52.272;13.356;2023-07-20T13:47:23;0.38;;;0.38;;
37051;SDS011;22964;52.272;13.356;2023-07-20T13:49:49;1.38;;;0.60;;
37051;SDS011;22964;52.272;13.356;2023-07-20T13:52:14;1.17;;;0.50;;
37051;SDS011;22964;52.272;13.356;2023-07-20T13:54:40;0.20;;;0.20;;
37051;SDS011;22964;52.272;13.356;2023-07-20T13:57:06;0.70;;;0.40;;
37051;SDS011;22964;52.272;13.356;2023-07-20T13:59:32;3.08;;;0.40;;
37051;SDS011;22964;52.272;13.356;2023-07-20T14:01:57;2.03;;;0.50;;
37051;SDS011;22964;52.272;13.356;2023-07-20T14:04:23;0.60;;;0.40;;
37051;SDS011;22964;52.272;13.356;2023-07-20T14:06:49;0.38;;;0.38;;
37051;SDS011;22964;52.272;13.356;2023-07-20T14:09:15;0.55;;;0.40;;
37051;SDS011;22964;52.272;13.356;2023-07-20T14:11:41;0.85;;;0.57;;
37051;SDS011;22964;52.272;13.356;2023-07-20T14:14:07;0.63;;;0.45;;
37051;SDS011;22964;52.272;13.356;2023-07-20T14:16:32;0.52;;;0.40;;
37051;SDS011;22964;52.272;13.356;2023-07-20T14:18:58;0.43;;;0.40;;
37051;SDS011;22964;52.272;13.356;2023-07-20T14:21:24;0.80;;;0.40;;
37051;SDS011;22964;52.272;13.356;2023-07-20T14:23:51;0.73;;;0.30;;
37051;SDS011;22964;52.272;13.356;2023-07-20T14:26:21;0.40;;;0.40;;
37051;SDS011;22964;52.272;13.356;2023-07-20T14:28:46;0.45;;;0.40;;
37051;SDS011;22964;52.272;13.356;2023-07-20T14:31:12;0.80;;;0.45;;
37051;SDS011;22964;52.272;13.356;2023-07-20T14:33:39;0.35;;;0.35;;
37051;SDS011;22964;52.272;13.356;2023-07-20T14:36:04;0.50;;;0.50;;
37051;SDS011;22964;52.272;13.356;2023-07-20T14:38:30;0.60;;;0.40;;
37051;SDS011;22964;52.272;13.356;2023-07-20T14:40:58;1.65;;;0.50;;
37051;SDS011;22964;52.272;13.356;2023-07-20T14:43:24;0.40;;;0.32;;
37051;SDS011;22964;52.272;13.356;2023-07-20T14:45:49;0.40;;;0.40;;
37051;SDS011;22964;52.272;13.356;2023-07-20T14:48:15;0.82;;;0.50;;
37051;SDS011;22964;52.272;13.356;2023-07-20T14:50:41;1.00;;;0.45;;
37051;SDS011;22964;52.272;13.356;2023-07-20T14:53:07;1.30;;;0.70;;
37051;SDS011;22964;52.272;13.356;2023-07-20T14:55:33;0.73;;;0.40;;
37051;SDS011;22964;52.272;13.356;2023-07-20T14:57:59;1.10;;;0.50;;